createdAt,value
2017-04-30T18:30:03.205Z,344
2017-04-30T18:31:13.034Z,312
2017-04-30T18:32:23.229Z,288
2017-04-30T18:33:33.355Z,260
2017-04-30T18:34:43.524Z,236
2017-04-30T18:35:53.977Z,216
2017-04-30T18:37:04.103Z,192
2017-04-30T18:38:14.219Z,172
2017-04-30T18:39:24.459Z,156
2017-04-30T18:40:34.588Z,136
2017-04-30T18:41:45.127Z,124
2017-04-30T18:42:55.230Z,112
2017-04-30T18:44:05.060Z,96
2017-04-30T18:45:15.229Z,84
2017-04-30T18:46:25.405Z,76
2017-04-30T18:47:35.905Z,64
2017-04-30T18:48:46.025Z,52
2017-04-30T18:49:56.173Z,48
2017-04-30T18:51:06.391Z,40
2017-04-30T18:52:16.570Z,36
2017-04-30T18:53:26.987Z,32
2017-04-30T18:54:36.803Z,28
2017-04-30T18:55:46.920Z,24
2017-04-30T18:56:57.030Z,16
2017-04-30T18:58:07.165Z,16
2017-04-30T18:59:17.606Z,12
2017-04-30T19:00:27.407Z,8
2017-04-30T19:01:37.553Z,8
2017-04-30T19:02:47.731Z,8
2017-04-30T19:03:57.916Z,8
2017-04-30T19:05:08.005Z,4
2017-04-30T19:06:18.164Z,8
2017-04-30T19:07:27.948Z,4
2017-04-30T19:08:37.752Z,4
2017-04-30T19:09:47.866Z,0
2017-04-30T19:10:58.261Z,4
2017-04-30T19:12:08.449Z,4
2017-04-30T19:13:18.255Z,0
2017-04-30T19:14:28.380Z,0
2017-04-30T19:15:38.508Z,0
2017-04-30T19:16:48.607Z,0
2017-04-30T19:17:58.747Z,0
2017-04-30T19:19:08.885Z,0
2017-04-30T19:20:19.074Z,0
2017-04-30T19:21:28.922Z,0
2017-04-30T19:22:39.392Z,0
2017-04-30T19:23:49.502Z,0
2017-04-30T19:24:59.617Z,0
2017-04-30T19:26:09.746Z,0
2017-04-30T19:27:19.873Z,0
2017-04-30T19:28:30.322Z,0
2017-04-30T19:29:40.479Z,0
2017-04-30T19:30:50.654Z,0
2017-04-30T19:32:00.472Z,0
2017-04-30T19:33:10.609Z,0
2017-04-30T19:34:21.193Z,0
2017-04-30T19:35:31.311Z,0
2017-04-30T19:36:41.457Z,0
2017-04-30T19:37:51.582Z,0
2017-04-30T19:39:01.628Z,0
2017-04-30T19:40:12.222Z,0
2017-04-30T19:41:22.330Z,0
2017-04-30T19:42:32.518Z,0
2017-04-30T19:43:42.749Z,0
2017-04-30T19:44:52.877Z,0
2017-04-30T19:46:03.307Z,0
2017-04-30T19:47:13.442Z,0
2017-04-30T19:48:23.600Z,0
2017-04-30T19:49:34.042Z,0
2017-04-30T19:50:44.170Z,0
2017-04-30T19:51:54.590Z,0
2017-04-30T19:53:04.740Z,0
2017-04-30T19:54:14.892Z,0
2017-04-30T19:55:25.003Z,0
2017-04-30T19:56:35.118Z,0
2017-04-30T19:57:45.525Z,0
2017-04-30T19:58:55.878Z,0
2017-04-30T20:00:06.030Z,0
2017-04-30T20:01:16.211Z,0
2017-04-30T20:02:26.453Z,0
2017-04-30T20:03:36.930Z,0
2017-04-30T20:04:47.151Z,0
2017-04-30T20:05:57.306Z,0
2017-04-30T20:07:07.421Z,0
2017-04-30T20:08:17.581Z,0
2017-04-30T20:09:28.013Z,0
2017-04-30T20:10:38.224Z,0
2017-04-30T20:11:48.392Z,0
2017-04-30T20:12:58.523Z,0
2017-04-30T20:14:08.725Z,0
2017-04-30T20:15:19.127Z,0
2017-04-30T20:16:29.251Z,0
2017-04-30T20:17:39.392Z,0
2017-04-30T20:18:49.518Z,0
2017-04-30T20:19:59.714Z,0
2017-04-30T20:21:09.879Z,0
2017-04-30T20:22:19.987Z,0
2017-04-30T20:23:30.140Z,0
2017-04-30T20:24:40.251Z,0
2017-04-30T20:25:50.398Z,0
2017-04-30T20:27:00.835Z,0
2017-04-30T20:28:10.983Z,0
2017-04-30T20:29:21.140Z,0
2017-04-30T20:30:31.295Z,0
2017-04-30T20:31:41.126Z,0
2017-04-30T20:32:51.573Z,0
2017-04-30T20:34:01.738Z,0
2017-04-30T20:35:11.902Z,0
2017-04-30T20:36:22.059Z,0
2017-04-30T20:37:32.175Z,0
2017-04-30T20:38:42.618Z,0
2017-04-30T20:39:52.381Z,0
2017-04-30T20:41:02.277Z,0
2017-04-30T20:42:12.451Z,0
2017-04-30T20:43:22.601Z,0
2017-04-30T20:44:33.059Z,0
2017-04-30T20:45:43.274Z,0
2017-04-30T20:46:53.384Z,0
2017-04-30T20:48:03.500Z,0
2017-04-30T20:49:13.694Z,0
2017-04-30T20:50:24.119Z,0
2017-04-30T20:51:34.314Z,0
2017-04-30T20:52:44.477Z,0
2017-04-30T20:53:54.633Z,0
2017-04-30T20:55:04.837Z,0
2017-04-30T20:56:15.043Z,0
2017-04-30T20:57:25.141Z,0
2017-04-30T20:58:34.591Z,0
2017-04-30T20:59:44.702Z,0
2017-04-30T21:00:54.799Z,0
2017-04-30T21:02:05.247Z,0
2017-04-30T21:03:15.394Z,0
2017-04-30T21:04:25.164Z,0
2017-04-30T21:05:35.282Z,0
2017-04-30T21:06:45.388Z,0
2017-04-30T21:07:55.787Z,0
2017-04-30T21:09:05.941Z,0
2017-04-30T21:10:15.762Z,0
2017-04-30T21:11:25.846Z,0
2017-04-30T21:12:35.955Z,0
2017-04-30T21:13:45.778Z,0
2017-04-30T21:14:55.952Z,0
2017-04-30T21:16:05.498Z,0
2017-04-30T21:17:15.633Z,0
2017-04-30T21:18:25.407Z,0
2017-04-30T21:19:36.016Z,0
2017-04-30T21:20:46.247Z,0
2017-04-30T21:21:56.410Z,0
2017-04-30T21:23:06.553Z,0
2017-04-30T21:24:16.706Z,0
2017-04-30T21:25:27.160Z,0
2017-04-30T21:26:37.041Z,0
2017-04-30T21:27:47.239Z,0
2017-04-30T21:28:57.111Z,0
2017-04-30T21:30:07.415Z,0
2017-04-30T21:31:17.848Z,0
2017-04-30T21:32:27.985Z,0
2017-04-30T21:33:38.166Z,0
2017-04-30T21:34:48.377Z,0
2017-04-30T21:35:58.627Z,0
2017-04-30T21:37:09.075Z,0
2017-04-30T21:38:19.169Z,0
2017-04-30T21:39:29.280Z,0
2017-04-30T21:40:39.421Z,0
2017-04-30T21:41:49.512Z,0
2017-04-30T21:43:00.047Z,0
2017-04-30T21:44:09.883Z,0
2017-04-30T21:45:19.682Z,0
2017-04-30T21:46:29.785Z,0
2017-04-30T21:47:39.635Z,0
2017-04-30T21:48:50.154Z,0
2017-04-30T21:50:00.289Z,0
2017-04-30T21:51:10.434Z,0
2017-04-30T21:52:20.584Z,0
2017-04-30T21:53:30.798Z,0
2017-04-30T21:54:41.187Z,0
2017-04-30T21:55:51.448Z,0
2017-04-30T21:57:01.681Z,0
2017-04-30T21:58:11.802Z,0
2017-04-30T21:59:21.072Z,0
2017-04-30T22:00:31.446Z,0
2017-04-30T22:01:41.551Z,0
2017-04-30T22:02:51.753Z,0
2017-04-30T22:04:01.926Z,0
2017-04-30T22:05:12.027Z,0
2017-04-30T22:06:22.507Z,0
2017-04-30T22:07:32.307Z,0
2017-04-30T22:08:42.407Z,0
2017-04-30T22:09:52.574Z,0
2017-04-30T22:11:02.724Z,0
2017-04-30T22:12:13.131Z,0
2017-04-30T22:13:23.447Z,0
2017-04-30T22:14:33.667Z,0
2017-04-30T22:15:43.771Z,0
2017-04-30T22:16:53.893Z,0
2017-04-30T22:18:04.045Z,0
2017-04-30T22:19:14.169Z,0
2017-04-30T22:20:24.269Z,0
2017-04-30T22:21:34.423Z,0
2017-04-30T22:22:44.609Z,0
2017-04-30T22:23:55.010Z,0
2017-04-30T22:25:05.183Z,0
2017-04-30T22:26:15.284Z,0
2017-04-30T22:27:25.080Z,0
2017-04-30T22:28:34.851Z,0
2017-04-30T22:29:44.913Z,0
2017-04-30T22:30:55.012Z,0
2017-04-30T22:32:05.097Z,0
2017-04-30T22:33:15.244Z,0
2017-04-30T22:34:25.343Z,0
2017-04-30T22:35:35.176Z,0
2017-04-30T22:36:45.453Z,0
2017-04-30T22:37:55.565Z,0
2017-04-30T22:39:05.774Z,0
2017-04-30T22:40:15.700Z,0
2017-04-30T22:41:26.100Z,0
2017-04-30T22:42:36.207Z,0
2017-04-30T22:43:46.310Z,0
2017-04-30T22:44:56.423Z,0
2017-04-30T22:46:05.852Z,0
2017-04-30T22:47:16.259Z,0
2017-04-30T22:48:26.033Z,0
2017-04-30T22:49:36.201Z,0
2017-04-30T22:50:46.302Z,0
2017-04-30T22:51:56.074Z,0
2017-04-30T22:53:06.471Z,0
2017-04-30T22:54:16.301Z,0
2017-04-30T22:55:26.092Z,0
2017-04-30T22:56:36.189Z,0
2017-04-30T22:57:46.105Z,0
2017-04-30T22:58:56.534Z,0
2017-04-30T23:00:06.684Z,0
2017-04-30T23:01:16.443Z,0
2017-04-30T23:02:26.358Z,0
2017-04-30T23:03:36.508Z,0
2017-04-30T23:04:46.913Z,0
2017-04-30T23:05:56.689Z,0
2017-04-30T23:07:06.493Z,0
2017-04-30T23:08:16.593Z,0
2017-04-30T23:09:26.701Z,0
2017-04-30T23:10:37.115Z,0
2017-04-30T23:11:47.257Z,0
2017-04-30T23:12:57.402Z,0
2017-04-30T23:14:07.640Z,0
2017-04-30T23:15:17.826Z,0
2017-04-30T23:16:28.234Z,0
2017-04-30T23:17:38.328Z,0
2017-04-30T23:18:48.454Z,0
2017-04-30T23:19:58.558Z,0
2017-04-30T23:21:08.653Z,0
2017-04-30T23:22:18.731Z,0
2017-04-30T23:23:28.523Z,0
2017-04-30T23:24:38.620Z,0
2017-04-30T23:25:48.516Z,0
2017-04-30T23:26:58.682Z,0
2017-04-30T23:28:09.028Z,0
2017-04-30T23:29:19.199Z,0
2017-04-30T23:30:28.977Z,0
2017-04-30T23:31:39.071Z,0
2017-04-30T23:32:49.224Z,0
2017-04-30T23:33:59.741Z,0
2017-04-30T23:35:09.869Z,0
2017-04-30T23:36:19.976Z,0
2017-04-30T23:37:30.072Z,0
2017-04-30T23:38:40.359Z,0
2017-04-30T23:39:50.804Z,0
2017-04-30T23:41:01.272Z,0
2017-04-30T23:42:11.078Z,0
2017-04-30T23:43:21.167Z,0
2017-04-30T23:44:31.306Z,0
2017-04-30T23:45:41.723Z,0
2017-04-30T23:46:51.956Z,0
2017-04-30T23:48:02.131Z,0
2017-04-30T23:49:12.197Z,0
2017-04-30T23:50:22.375Z,0
2017-04-30T23:51:32.770Z,0
2017-04-30T23:52:42.870Z,0
2017-04-30T23:53:52.960Z,0
2017-04-30T23:55:03.059Z,0
2017-04-30T23:56:13.155Z,0
2017-04-30T23:57:23.613Z,0
2017-04-30T23:58:33.428Z,0
2017-04-30T23:59:43.567Z,0
